createdAt,value
2018-04-24T00:02:14.349Z,10.70
2018-04-24T00:04:41.829Z,10.80
2018-04-24T00:07:09.325Z,10.70
2018-04-24T00:09:36.805Z,10.70
2018-04-24T00:12:04.303Z,10.70
2018-04-24T00:14:31.782Z,10.70
2018-04-24T00:16:59.275Z,10.80
2018-04-24T00:19:26.761Z,10.80
2018-04-24T00:21:54.257Z,10.80
2018-04-24T00:24:21.741Z,10.70
2018-04-24T00:26:49.230Z,10.70
2018-04-24T00:29:16.713Z,10.70
2018-04-24T00:31:44.205Z,10.70
2018-04-24T00:34:12.454Z,10.60
2018-04-24T00:36:39.956Z,10.60
2018-04-24T00:39:08.205Z,10.60
2018-04-24T00:41:35.703Z,10.50
2018-04-24T00:44:03.946Z,10.50
2018-04-24T00:46:31.452Z,10.50
2018-04-24T00:48:58.925Z,10.50
2018-04-24T00:51:26.408Z,10.50
2018-04-24T00:53:53.901Z,10.40
2018-04-24T00:56:21.373Z,10.40
2018-04-24T00:58:48.873Z,10.40
2018-04-24T01:01:16.354Z,10.30
2018-04-24T01:03:43.845Z,10.30
2018-04-24T01:06:11.330Z,10.30
2018-04-24T01:08:38.824Z,10.20
2018-04-24T01:11:06.301Z,10.20
2018-04-24T01:13:33.801Z,10.10
2018-04-24T01:16:01.282Z,10.10
2018-04-24T01:18:29.533Z,10.10
2018-04-24T01:20:57.022Z,10.10
2018-04-24T01:23:24.521Z,10.10
2018-04-24T01:25:51.997Z,10.10
2018-04-24T01:28:19.485Z,10.10
2018-04-24T01:30:46.965Z,10.10
2018-04-24T01:33:14.458Z,10.10
2018-04-24T01:35:42.705Z,10.10
2018-04-24T01:38:10.193Z,10.00
2018-04-24T01:40:37.683Z,10.00
2018-04-24T01:43:05.178Z,10.00
2018-04-24T01:45:32.653Z,10.00
2018-04-24T01:48:00.144Z,10.00
2018-04-24T01:50:27.621Z,10.00
2018-04-24T01:52:55.113Z,9.90
2018-04-24T01:55:23.357Z,9.90
2018-04-24T01:57:50.833Z,9.80
2018-04-24T02:00:18.317Z,9.90
2018-04-24T02:02:45.797Z,9.90
2018-04-24T02:05:13.297Z,9.90
2018-04-24T02:07:40.773Z,9.90
2018-04-24T02:10:08.261Z,9.90
2018-04-24T02:12:35.734Z,9.90
2018-04-24T02:15:03.233Z,9.90
2018-04-24T02:17:30.710Z,9.80
2018-04-24T02:19:58.201Z,9.80
2018-04-24T02:22:25.673Z,9.80
2018-04-24T02:24:53.218Z,9.80
2018-04-24T02:27:20.660Z,9.80
2018-04-24T02:29:48.149Z,9.80
2018-04-24T02:32:15.641Z,9.80
2018-04-24T02:34:43.133Z,9.80
2018-04-24T02:37:10.609Z,9.80
2018-04-24T02:39:38.106Z,9.80
2018-04-24T02:42:05.599Z,9.80
2018-04-24T02:44:33.110Z,9.80
2018-04-24T02:47:00.589Z,9.80
2018-04-24T02:49:28.077Z,9.70
2018-04-24T02:51:55.553Z,9.70
2018-04-24T02:54:23.088Z,9.70
2018-04-24T02:56:50.547Z,9.60
2018-04-24T02:59:18.038Z,9.60
2018-04-24T03:01:45.509Z,9.60
2018-04-24T03:04:13.015Z,9.60
2018-04-24T03:06:40.489Z,9.60
2018-04-24T03:09:07.994Z,9.50
2018-04-24T03:11:35.470Z,9.50
2018-04-24T03:14:02.949Z,9.50
2018-04-24T03:16:30.449Z,9.60
2018-04-24T03:18:57.925Z,9.50
2018-04-24T03:21:25.420Z,9.50
2018-04-24T03:23:52.898Z,9.50
2018-04-24T03:26:20.397Z,9.50
2018-04-24T03:28:47.870Z,9.50
2018-04-24T03:31:15.368Z,9.50
2018-04-24T03:33:42.845Z,9.50
2018-04-24T03:36:10.334Z,9.40
2018-04-24T03:38:37.809Z,9.40
2018-04-24T03:41:05.301Z,9.40
2018-04-24T03:43:32.773Z,9.40
2018-04-24T03:46:00.262Z,9.40
2018-04-24T03:48:27.742Z,9.40
2018-04-24T03:50:55.233Z,9.40
2018-04-24T03:53:22.707Z,9.40
2018-04-24T03:55:50.202Z,9.40
2018-04-24T03:58:17.677Z,9.40
2018-04-24T04:00:45.185Z,9.40
2018-04-24T04:03:12.659Z,9.40
2018-04-24T04:05:40.154Z,9.40
2018-04-24T04:08:07.634Z,9.40
2018-04-24T04:10:35.195Z,9.40
2018-04-24T04:13:02.672Z,9.40
2018-04-24T04:15:30.156Z,9.40
2018-04-24T04:18:10.066Z,9.40
2018-04-24T04:20:49.354Z,9.30
2018-04-24T04:23:28.501Z,9.40
2018-04-24T04:25:55.992Z,9.40
2018-04-24T04:28:23.479Z,9.40
2018-04-24T04:30:51.804Z,9.40
2018-04-24T04:33:19.281Z,9.40
2018-04-24T04:35:46.791Z,9.40
2018-04-24T04:38:14.262Z,9.40
2018-04-24T04:40:41.738Z,9.50
2018-04-24T04:43:09.225Z,9.50
2018-04-24T04:45:36.702Z,9.50
2018-04-24T04:48:04.202Z,9.60
2018-04-24T04:50:31.677Z,9.60
2018-04-24T04:52:59.193Z,9.60
2018-04-24T04:55:26.665Z,9.60
2018-04-24T04:57:54.153Z,9.70
2018-04-24T05:00:21.633Z,9.70
2018-04-24T05:02:49.137Z,9.80
2018-04-24T05:05:16.677Z,9.80
2018-04-24T05:07:44.150Z,9.80
2018-04-24T05:10:11.624Z,9.80
2018-04-24T05:12:39.121Z,9.80
2018-04-24T05:15:06.618Z,9.80
2018-04-24T05:17:34.109Z,9.90
2018-04-24T05:20:01.662Z,9.90
2018-04-24T05:22:29.101Z,9.90
2018-04-24T05:24:56.580Z,9.90
2018-04-24T05:27:24.075Z,9.90
2018-04-24T05:29:51.558Z,10.00
2018-04-24T05:32:20.070Z,10.30
2018-04-24T05:34:47.563Z,10.40
2018-04-24T05:37:15.069Z,10.70
2018-04-24T05:39:42.545Z,10.80
2018-04-24T05:42:10.038Z,10.90
2018-04-24T05:44:37.510Z,10.90
2018-04-24T05:47:05.006Z,11.00
2018-04-24T05:49:32.541Z,11.00
2018-04-24T05:52:00.033Z,11.00
2018-04-24T05:54:27.513Z,11.10
2018-04-24T05:56:55.014Z,11.20
2018-04-24T05:59:22.493Z,11.30
2018-04-24T06:01:49.974Z,11.40
2018-04-24T06:04:17.533Z,11.50
2018-04-24T06:06:45.027Z,11.70
2018-04-24T06:09:13.293Z,12.00
2018-04-24T06:11:40.769Z,11.90
2018-04-24T06:14:08.264Z,12.10
2018-04-24T06:16:35.745Z,12.20
2018-04-24T06:19:03.249Z,12.30
2018-04-24T06:21:30.752Z,12.50
2018-04-24T06:23:58.245Z,12.50
2018-04-24T06:26:25.721Z,12.60
2018-04-24T06:28:53.227Z,12.60
2018-04-24T06:31:20.704Z,12.70
2018-04-24T06:33:48.201Z,12.80
2018-04-24T06:36:15.682Z,12.90
2018-04-24T06:38:43.173Z,13.00
2018-04-24T06:41:10.677Z,13.20
2018-04-24T06:43:38.170Z,13.30
2018-04-24T06:46:05.650Z,13.50
2018-04-24T06:48:33.150Z,13.60
2018-04-24T06:51:00.625Z,13.70
2018-04-24T06:53:28.125Z,13.80
2018-04-24T06:55:55.609Z,14.00
2018-04-24T06:58:23.117Z,14.10
2018-04-24T07:00:50.662Z,14.30
2018-04-24T07:03:18.105Z,14.40
2018-04-24T07:05:45.586Z,14.50
2018-04-24T07:08:13.089Z,14.60
2018-04-24T07:10:40.565Z,14.70
2018-04-24T07:13:08.054Z,14.80
2018-04-24T07:15:35.549Z,15.00
2018-04-24T07:18:03.033Z,15.10
2018-04-24T07:20:30.537Z,15.20
2018-04-24T07:22:58.017Z,15.40
2018-04-24T07:25:25.513Z,15.60
2018-04-24T07:27:52.989Z,15.80
2018-04-24T07:30:20.492Z,15.90
2018-04-24T07:32:47.984Z,16.10
2018-04-24T07:35:15.639Z,16.30
2018-04-24T07:37:43.109Z,16.50
2018-04-24T07:40:10.613Z,16.50
2018-04-24T07:42:38.094Z,16.50
2018-04-24T07:45:05.594Z,16.70
2018-04-24T07:47:33.078Z,16.80
2018-04-24T07:50:00.586Z,17.00
2018-04-24T07:52:28.065Z,17.10
2018-04-24T07:54:55.553Z,17.10
2018-04-24T07:57:23.025Z,17.10
2018-04-24T07:59:50.521Z,17.20
2018-04-24T08:02:18.001Z,17.30
2018-04-24T08:04:45.498Z,17.40
2018-04-24T08:07:12.975Z,17.50
2018-04-24T08:09:40.468Z,17.60
2018-04-24T08:12:07.945Z,17.70
2018-04-24T08:14:35.425Z,17.90
2018-04-24T08:17:02.926Z,17.90
2018-04-24T08:19:30.401Z,17.90
2018-04-24T08:21:57.897Z,17.90
2018-04-24T08:24:25.392Z,17.80
2018-04-24T08:26:52.886Z,17.80
2018-04-24T08:29:20.361Z,17.80
2018-04-24T08:31:48.622Z,18.00
2018-04-24T08:34:16.867Z,18.00
2018-04-24T08:36:44.364Z,18.00
2018-04-24T08:39:11.846Z,17.90
2018-04-24T08:41:40.298Z,17.70
2018-04-24T08:44:07.785Z,17.70
2018-04-24T08:46:35.289Z,17.80
2018-04-24T08:49:02.766Z,18.00
2018-04-24T08:51:30.262Z,18.20
2018-04-24T08:53:57.741Z,18.30
2018-04-24T08:56:25.240Z,18.50
2018-04-24T08:58:52.729Z,18.60
2018-04-24T09:01:20.226Z,18.60
2018-04-24T09:03:47.948Z,18.50
2018-04-24T09:06:16.198Z,18.40
2018-04-24T09:08:43.685Z,18.50
2018-04-24T09:11:11.200Z,18.50
2018-04-24T09:13:38.681Z,18.50
2018-04-24T09:16:06.165Z,18.30
2018-04-24T09:18:33.668Z,18.20
2018-04-24T09:21:01.147Z,18.10
2018-04-24T09:23:28.658Z,18.00
2018-04-24T09:25:56.129Z,18.10
2018-04-24T09:28:23.620Z,18.10
2018-04-24T09:30:51.101Z,18.10
2018-04-24T09:33:18.597Z,18.10
2018-04-24T09:35:46.076Z,18.00
2018-04-24T09:38:13.565Z,17.90
2018-04-24T09:40:41.045Z,17.80
2018-04-24T09:43:08.589Z,17.80
2018-04-24T09:45:36.077Z,17.80
2018-04-24T09:48:03.570Z,17.90
2018-04-24T09:50:31.050Z,18.10
2018-04-24T09:52:58.564Z,18.20
2018-04-24T09:55:26.050Z,18.20
2018-04-24T09:57:53.551Z,18.30
2018-04-24T10:00:26.599Z,18.40
2018-04-24T10:02:54.089Z,18.60
2018-04-24T10:05:21.570Z,18.60
2018-04-24T10:07:49.171Z,18.60
2018-04-24T10:10:16.587Z,18.50
2018-04-24T10:12:44.072Z,18.50
2018-04-24T10:15:11.550Z,18.40
2018-04-24T10:17:39.037Z,18.30
2018-04-24T10:20:06.521Z,18.20
2018-04-24T10:22:33.997Z,18.20
2018-04-24T10:25:01.497Z,18.30
2018-04-24T10:27:28.969Z,18.30
2018-04-24T10:29:56.461Z,18.40
2018-04-24T10:32:23.932Z,18.50
2018-04-24T10:34:52.190Z,18.90
2018-04-24T10:37:19.661Z,18.80
2018-04-24T10:39:47.173Z,19.00
2018-04-24T10:42:14.658Z,19.20
2018-04-24T10:44:42.152Z,19.40
2018-04-24T10:47:09.637Z,19.50
2018-04-24T10:49:37.141Z,19.40
2018-04-24T10:52:04.632Z,19.40
2018-04-24T10:54:32.133Z,19.40
2018-04-24T10:56:59.606Z,19.40
2018-04-24T10:59:27.144Z,19.50
2018-04-24T11:01:54.599Z,19.60
2018-04-24T11:04:22.106Z,19.70
2018-04-24T11:06:49.577Z,19.80
2018-04-24T11:09:17.837Z,19.60
2018-04-24T11:11:45.322Z,19.50
2018-04-24T11:14:12.811Z,19.50
2018-04-24T11:16:40.299Z,19.40
2018-04-24T11:19:07.793Z,19.50
2018-04-24T11:21:35.273Z,19.60
2018-04-24T11:24:02.761Z,19.50
2018-04-24T11:26:30.245Z,19.40
2018-04-24T11:28:57.725Z,19.30
2018-04-24T11:31:25.233Z,19.40
2018-04-24T11:33:52.709Z,19.30
2018-04-24T11:36:20.205Z,19.30
2018-04-24T11:38:47.680Z,19.50
2018-04-24T11:41:15.181Z,19.60
2018-04-24T11:43:43.425Z,19.90
2018-04-24T11:46:10.919Z,19.90
2018-04-24T11:48:39.228Z,20.10
2018-04-24T11:51:06.669Z,20.10
2018-04-24T11:53:34.142Z,20.20
2018-04-24T11:56:01.650Z,20.30
2018-04-24T11:58:29.130Z,20.20
2018-04-24T12:00:56.683Z,20.10
2018-04-24T12:03:24.161Z,20.10
2018-04-24T12:05:51.658Z,20.00
2018-04-24T12:08:19.911Z,20.00
2018-04-24T12:10:47.404Z,20.00
2018-04-24T12:13:14.881Z,20.10
2018-04-24T12:15:42.424Z,20.10
2018-04-24T12:18:09.889Z,20.00
2018-04-24T12:20:37.393Z,19.90
2018-04-24T12:23:04.878Z,19.70
2018-04-24T12:25:32.373Z,19.70
2018-04-24T12:27:59.952Z,19.80
2018-04-24T12:30:27.420Z,19.80
2018-04-24T12:32:54.901Z,19.90
2018-04-24T12:35:22.402Z,20.10
2018-04-24T12:37:49.876Z,20.20
2018-04-24T12:40:17.370Z,20.30
2018-04-24T12:42:44.870Z,20.30
2018-04-24T12:45:12.351Z,20.40
2018-04-24T12:47:39.842Z,20.40
2018-04-24T12:50:07.325Z,20.40
2018-04-24T12:52:34.856Z,20.50
2018-04-24T12:55:02.333Z,20.60
2018-04-24T12:57:29.824Z,20.70
2018-04-24T12:59:57.310Z,20.70
2018-04-24T13:02:24.817Z,20.70
2018-04-24T13:04:52.305Z,20.80
2018-04-24T13:07:19.805Z,21.00
2018-04-24T13:09:47.301Z,21.00
2018-04-24T13:12:14.792Z,21.00
2018-04-24T13:14:42.272Z,21.00
2018-04-24T13:17:09.782Z,20.80
2018-04-24T13:19:37.262Z,20.70
2018-04-24T13:22:04.769Z,20.70
2018-04-24T13:24:32.260Z,20.80
2018-04-24T13:26:59.757Z,21.00
2018-04-24T13:29:27.238Z,21.00
2018-04-24T13:31:54.733Z,21.10
2018-04-24T13:34:22.213Z,21.20
2018-04-24T13:36:49.713Z,21.30
2018-04-24T13:39:17.957Z,21.10
2018-04-24T13:41:45.454Z,21.10
2018-04-24T13:44:12.931Z,21.00
2018-04-24T13:46:40.441Z,21.10
2018-04-24T13:49:08.234Z,21.10
2018-04-24T13:51:35.735Z,21.20
2018-04-24T13:54:03.245Z,21.20
2018-04-24T13:56:30.726Z,21.10
2018-04-24T13:58:58.225Z,21.20
2018-04-24T14:01:25.713Z,21.30
2018-04-24T14:03:53.211Z,21.30
2018-04-24T14:06:20.752Z,21.30
2018-04-24T14:08:48.206Z,21.30
2018-04-24T14:11:15.714Z,21.20
2018-04-24T14:13:43.221Z,21.10
2018-04-24T14:16:10.700Z,21.20
2018-04-24T14:18:38.209Z,21.10
2018-04-24T14:21:05.696Z,21.20
2018-04-24T14:23:33.256Z,21.20
2018-04-24T14:26:00.714Z,21.30
2018-04-24T14:28:28.983Z,21.30
2018-04-24T14:30:56.461Z,21.30
2018-04-24T14:33:23.963Z,21.20
2018-04-24T14:35:51.442Z,21.10
2018-04-24T14:38:18.937Z,20.90
2018-04-24T14:40:46.413Z,20.80
2018-04-24T14:43:13.913Z,20.70
2018-04-24T14:45:42.157Z,20.80
2018-04-24T14:48:09.654Z,20.70
2018-04-24T14:50:37.150Z,20.70
2018-04-24T14:53:04.641Z,20.70
2018-04-24T14:55:32.121Z,20.70
2018-04-24T14:57:59.622Z,20.70
2018-04-24T15:00:27.103Z,20.60
2018-04-24T15:02:54.598Z,20.40
2018-04-24T15:05:22.074Z,20.40
2018-04-24T15:07:49.554Z,20.40
2018-04-24T15:10:17.045Z,20.40
2018-04-24T15:12:44.526Z,20.50
2018-04-24T15:15:12.018Z,20.70
2018-04-24T15:17:39.497Z,20.70
2018-04-24T15:20:06.998Z,20.80
2018-04-24T15:22:34.484Z,20.70
2018-04-24T15:25:01.970Z,20.80
2018-04-24T15:27:29.465Z,20.80
2018-04-24T15:29:56.969Z,20.90
2018-04-24T15:32:24.449Z,20.90
2018-04-24T15:34:52.008Z,21.00
2018-04-24T15:37:19.429Z,21.00
2018-04-24T15:39:46.925Z,21.00
2018-04-24T15:42:15.164Z,21.00
2018-04-24T15:44:42.669Z,20.90
2018-04-24T15:47:10.152Z,21.00
2018-04-24T15:49:37.645Z,21.00
2018-04-24T15:52:05.129Z,21.00
2018-04-24T15:54:32.625Z,21.00
2018-04-24T15:57:00.106Z,20.90
2018-04-24T15:59:27.615Z,20.80
2018-04-24T16:01:55.102Z,20.80
2018-04-24T16:04:22.594Z,20.70
2018-04-24T16:06:50.845Z,20.70
2018-04-24T16:09:18.333Z,20.60
2018-04-24T16:11:45.804Z,20.70
2018-04-24T16:14:13.304Z,20.80
2018-04-24T16:16:40.785Z,20.80
2018-04-24T16:19:08.310Z,20.80
2018-04-24T16:21:35.785Z,20.80
2018-04-24T16:24:03.281Z,20.70
2018-04-24T16:26:30.775Z,20.70
2018-04-24T16:28:58.282Z,20.60
2018-04-24T16:31:25.777Z,20.60
2018-04-24T16:33:53.318Z,20.60
2018-04-24T16:36:21.529Z,20.50
2018-04-24T16:38:49.013Z,20.50
2018-04-24T16:41:16.513Z,20.40
2018-04-24T16:43:44.015Z,20.40
2018-04-24T16:46:12.278Z,20.40
2018-04-24T16:48:39.783Z,20.30
2018-04-24T16:51:07.281Z,20.30
2018-04-24T16:53:35.409Z,20.30
2018-04-24T16:56:02.977Z,20.30
2018-04-24T16:58:30.400Z,20.20
2018-04-24T17:00:58.666Z,20.10
2018-04-24T17:03:26.158Z,20.10
2018-04-24T17:05:53.659Z,20.20
2018-04-24T17:08:21.137Z,20.10
2018-04-24T17:10:48.642Z,20.10
2018-04-24T17:13:16.121Z,20.00
2018-04-24T17:15:43.618Z,20.00
2018-04-24T17:18:11.114Z,20.00
2018-04-24T17:20:38.633Z,20.00
2018-04-24T17:23:06.139Z,20.00
2018-04-24T17:25:33.680Z,20.00
2018-04-24T17:28:01.128Z,20.00
2018-04-24T17:30:28.613Z,20.10
2018-04-24T17:32:56.101Z,20.10
2018-04-24T17:35:23.622Z,20.10
2018-04-24T17:37:51.110Z,20.10
2018-04-24T17:40:19.357Z,19.90
2018-04-24T17:42:46.899Z,19.80
2018-04-24T17:45:14.367Z,19.80
2018-04-24T17:47:41.873Z,19.70
2018-04-24T17:50:09.349Z,19.60
2018-04-24T17:52:36.848Z,19.50
2018-04-24T17:55:04.331Z,19.50
2018-04-24T17:57:31.825Z,19.40
2018-04-24T17:59:59.301Z,19.30
2018-04-24T18:02:26.789Z,19.20
2018-04-24T18:04:54.264Z,19.10
2018-04-24T18:07:21.756Z,19.00
2018-04-24T18:09:49.233Z,18.90
2018-04-24T18:12:16.771Z,18.80
2018-04-24T18:14:44.258Z,18.70
2018-04-24T18:17:11.753Z,18.60
2018-04-24T18:19:39.240Z,18.60
2018-04-24T18:22:06.761Z,18.50
2018-04-24T18:24:34.272Z,18.40
2018-04-24T18:27:01.773Z,18.30
2018-04-24T18:29:29.245Z,18.30
2018-04-24T18:31:56.746Z,18.10
2018-04-24T18:34:24.249Z,18.00
2018-04-24T18:36:51.761Z,17.90
2018-04-24T18:39:19.285Z,17.70
2018-04-24T18:41:46.784Z,17.60
2018-04-24T18:44:14.402Z,17.50
2018-04-24T18:46:41.878Z,17.50
2018-04-24T18:49:10.137Z,17.30
2018-04-24T18:51:37.622Z,17.30
2018-04-24T18:54:05.117Z,17.30
2018-04-24T18:56:32.589Z,17.20
2018-04-24T18:59:00.085Z,17.10
2018-04-24T19:01:27.565Z,17.00
2018-04-24T19:03:55.077Z,17.00
2018-04-24T19:06:22.557Z,16.80
2018-04-24T19:08:50.054Z,16.80
2018-04-24T19:11:17.549Z,16.70
2018-04-24T19:13:45.051Z,16.60
2018-04-24T19:16:12.538Z,16.60
2018-04-24T19:18:45.589Z,16.50
2018-04-24T19:21:13.079Z,16.40
2018-04-24T19:23:40.618Z,16.40
2018-04-24T19:26:08.069Z,16.20
2018-04-24T19:28:35.567Z,16.10
2018-04-24T19:31:08.700Z,16.00
2018-04-24T19:33:36.197Z,15.90
2018-04-24T19:36:03.669Z,15.80
2018-04-24T19:38:31.173Z,15.70
2018-04-24T19:41:04.370Z,15.60
2018-04-24T19:43:31.917Z,15.40
2018-04-24T19:45:59.329Z,15.30
2018-04-24T19:48:32.373Z,15.30
2018-04-24T19:50:59.849Z,15.20
2018-04-24T19:53:27.330Z,15.20
2018-04-24T19:55:54.822Z,15.10
2018-04-24T19:58:22.295Z,15.10
2018-04-24T20:00:49.792Z,15.10
2018-04-24T20:03:18.035Z,15.00
2018-04-24T20:05:45.530Z,14.90
2018-04-24T20:08:13.009Z,14.90
2018-04-24T20:10:40.559Z,14.90
2018-04-24T20:13:08.052Z,14.80
2018-04-24T20:15:35.549Z,14.70
2018-04-24T20:18:03.035Z,14.70
2018-04-24T20:20:30.535Z,14.60
2018-04-24T20:22:58.071Z,14.50
2018-04-24T20:25:25.566Z,14.50
2018-04-24T20:27:53.039Z,14.40
2018-04-24T20:30:20.529Z,14.30
2018-04-24T20:32:48.001Z,14.20
2018-04-24T20:35:15.498Z,14.10
2018-04-24T20:37:42.977Z,13.90
2018-04-24T20:40:10.481Z,13.90
2018-04-24T20:42:37.952Z,13.90
2018-04-24T20:45:05.453Z,13.80
2018-04-24T20:47:32.971Z,13.70
2018-04-24T20:50:00.457Z,13.60
2018-04-24T20:52:27.939Z,13.60
2018-04-24T20:54:56.205Z,13.40
2018-04-24T20:57:23.680Z,13.40
2018-04-24T20:59:51.173Z,13.40
2018-04-24T21:02:18.661Z,13.30
2018-04-24T21:04:46.153Z,13.20
2018-04-24T21:07:13.645Z,13.20
2018-04-24T21:09:41.122Z,13.10
2018-04-24T21:12:08.616Z,13.10
2018-04-24T21:14:36.858Z,13.00
2018-04-24T21:17:04.354Z,12.90
2018-04-24T21:19:31.837Z,12.90
2018-04-24T21:21:59.333Z,12.90
2018-04-24T21:24:26.813Z,12.90
2018-04-24T21:26:54.301Z,12.80
2018-04-24T21:29:21.773Z,12.70
2018-04-24T21:31:49.265Z,12.70
2018-04-24T21:34:16.746Z,12.60
2018-04-24T21:36:44.246Z,12.60
2018-04-24T21:39:11.725Z,12.60
2018-04-24T21:41:39.232Z,12.60
2018-04-24T21:44:06.714Z,12.60
2018-04-24T21:46:34.213Z,12.60
2018-04-24T21:49:01.689Z,12.60
2018-04-24T21:51:29.184Z,12.60
2018-04-24T21:53:56.670Z,12.60
2018-04-24T21:56:24.165Z,12.60
2018-04-24T21:58:51.637Z,12.60
2018-04-24T22:01:19.132Z,12.50
2018-04-24T22:03:46.611Z,12.40
2018-04-24T22:06:14.102Z,12.40
2018-04-24T22:08:41.597Z,12.30
2018-04-24T22:11:09.073Z,12.20
2018-04-24T22:13:36.567Z,12.10
2018-04-24T22:16:04.054Z,12.00
2018-04-24T22:18:31.553Z,12.00
2018-04-24T22:20:59.040Z,12.00
2018-04-24T22:23:26.541Z,11.90
2018-04-24T22:25:54.021Z,12.00
2018-04-24T22:28:21.517Z,12.00
2018-04-24T22:30:48.995Z,12.00
2018-04-24T22:33:16.528Z,12.00
2018-04-24T22:35:43.977Z,12.00
2018-04-24T22:38:11.478Z,12.00
2018-04-24T22:40:38.960Z,12.00
2018-04-24T22:43:06.453Z,11.90
2018-04-24T22:45:33.932Z,11.90
2018-04-24T22:48:01.437Z,11.90
2018-04-24T22:50:28.923Z,11.90
2018-04-24T22:52:56.417Z,11.90
2018-04-24T22:55:23.889Z,11.80
2018-04-24T22:57:51.393Z,11.80
2018-04-24T23:00:18.869Z,11.80
2018-04-24T23:02:46.365Z,11.80
2018-04-24T23:05:13.853Z,11.70
2018-04-24T23:07:41.334Z,11.70
2018-04-24T23:10:08.337Z,11.70
2018-04-24T23:12:47.516Z,11.70
2018-04-24T23:15:26.734Z,11.70
2018-04-24T23:18:05.913Z,11.70
2018-04-24T23:20:32.905Z,11.60
2018-04-24T23:23:00.393Z,11.60
2018-04-24T23:25:27.873Z,11.50
2018-04-24T23:27:55.379Z,11.50
2018-04-24T23:30:22.857Z,11.50
2018-04-24T23:32:50.333Z,11.40
2018-04-24T23:35:17.825Z,11.40
2018-04-24T23:37:45.302Z,11.40
2018-04-24T23:40:12.801Z,11.40
2018-04-24T23:42:40.277Z,11.40
2018-04-24T23:45:07.780Z,11.30
2018-04-24T23:47:35.261Z,11.30
2018-04-24T23:50:02.753Z,11.30
2018-04-24T23:52:30.239Z,11.30
2018-04-24T23:54:57.733Z,11.30
2018-04-24T23:57:25.204Z,11.30
2018-04-24T23:59:52.708Z,11.20
